sensor_id;sensor_type;location;lat;lon;timestamp;P1;durP1;ratioP1;P2;durP2;ratioP2
44046;SDS011;29713;-33.888;151.150;2023-07-29T00:00:54;8.40;;;4.20;;
44046;SDS011;29713;-33.888;151.150;2023-07-29T00:03:21;8.77;;;4.00;;
44046;SDS011;29713;-33.888;151.150;2023-07-29T00:05:49;7.90;;;3.67;;
44046;SDS011;29713;-33.888;151.150;2023-07-29T00:08:16;8.10;;;4.05;;
44046;SDS011;29713;-33.888;151.150;2023-07-29T00:10:43;5.57;;;3.92;;
44046;SDS011;29713;-33.888;151.150;2023-07-29T00:13:11;6.50;;;3.60;;
44046;SDS011;29713;-33.888;151.150;2023-07-29T00:15:38;5.30;;;3.17;;
44046;SDS011;29713;-33.888;151.150;2023-07-29T00:18:05;11.07;;;3.60;;
44046;SDS011;29713;-33.888;151.150;2023-07-29T00:20:33;7.13;;;4.00;;
44046;SDS011;29713;-33.888;151.150;2023-07-29T00:23:00;6.40;;;3.45;;
44046;SDS011;29713;-33.888;151.150;2023-07-29T00:25:28;7.38;;;3.45;;
44046;SDS011;29713;-33.888;151.150;2023-07-29T00:27:55;4.70;;;2.63;;
44046;SDS011;29713;-33.888;151.150;2023-07-29T00:30:24;3.58;;;1.95;;
44046;SDS011;29713;-33.888;151.150;2023-07-29T00:32:52;4.47;;;1.80;;
44046;SDS011;29713;-33.888;151.150;2023-07-29T00:35:19;2.42;;;1.38;;
44046;SDS011;29713;-33.888;151.150;2023-07-29T00:37:46;5.53;;;1.70;;
44046;SDS011;29713;-33.888;151.150;2023-07-29T00:40:15;2.53;;;1.40;;
44046;SDS011;29713;-33.888;151.150;2023-07-29T00:42:46;3.83;;;1.10;;
44046;SDS011;29713;-33.888;151.150;2023-07-29T00:45:14;1.80;;;0.98;;
44046;SDS011;29713;-33.888;151.150;2023-07-29T00:47:41;2.35;;;1.10;;
44046;SDS011;29713;-33.888;151.150;2023-07-29T00:50:09;3.80;;;1.30;;
44046;SDS011;29713;-33.888;151.150;2023-07-29T00:52:38;2.15;;;1.10;;
44046;SDS011;29713;-33.888;151.150;2023-07-29T00:55:05;3.97;;;1.15;;
44046;SDS011;29713;-33.888;151.150;2023-07-29T00:57:33;1.98;;;1.08;;
44046;SDS011;29713;-33.888;151.150;2023-07-29T01:00:02;3.00;;;0.90;;
44046;SDS011;29713;-33.888;151.150;2023-07-29T01:02:30;1.95;;;1.00;;
44046;SDS011;29713;-33.888;151.150;2023-07-29T01:04:58;1.95;;;1.00;;
44046;SDS011;29713;-33.888;151.150;2023-07-29T01:13:23;4.20;;;0.80;;
44046;SDS011;29713;-33.888;151.150;2023-07-29T01:16:00;1.95;;;0.95;;
44046;SDS011;29713;-33.888;151.150;2023-07-29T01:18:35;2.10;;;0.85;;
44046;SDS011;29713;-33.888;151.150;2023-07-29T01:21:07;1.08;;;0.73;;
44046;SDS011;29713;-33.888;151.150;2023-07-29T01:23:35;1.38;;;0.77;;
44046;SDS011;29713;-33.888;151.150;2023-07-29T01:26:03;3.38;;;0.90;;
44046;SDS011;29713;-33.888;151.150;2023-07-29T01:28:30;2.28;;;0.85;;
44046;SDS011;29713;-33.888;151.150;2023-07-29T01:31:03;2.03;;;0.70;;
44046;SDS011;29713;-33.888;151.150;2023-07-29T01:33:45;4.80;;;1.00;;
44046;SDS011;29713;-33.888;151.150;2023-07-29T01:36:22;1.33;;;0.88;;
44046;SDS011;29713;-33.888;151.150;2023-07-29T01:38:54;1.75;;;0.90;;
44046;SDS011;29713;-33.888;151.150;2023-07-29T01:41:24;1.70;;;1.00;;
44046;SDS011;29713;-33.888;151.150;2023-07-29T01:43:52;1.67;;;0.90;;
44046;SDS011;29713;-33.888;151.150;2023-07-29T01:46:20;2.88;;;1.00;;
44046;SDS011;29713;-33.888;151.150;2023-07-29T01:48:47;2.08;;;0.70;;
44046;SDS011;29713;-33.888;151.150;2023-07-29T01:51:15;1.50;;;0.90;;
44046;SDS011;29713;-33.888;151.150;2023-07-29T01:53:42;3.58;;;1.13;;
44046;SDS011;29713;-33.888;151.150;2023-07-29T01:56:10;3.30;;;0.70;;
44046;SDS011;29713;-33.888;151.150;2023-07-29T01:58:37;2.83;;;0.50;;
44046;SDS011;29713;-33.888;151.150;2023-07-29T02:01:04;1.80;;;0.90;;
44046;SDS011;29713;-33.888;151.150;2023-07-29T02:03:31;2.80;;;0.95;;
44046;SDS011;29713;-33.888;151.150;2023-07-29T02:05:59;2.78;;;0.80;;
44046;SDS011;29713;-33.888;151.150;2023-07-29T02:08:26;0.95;;;0.75;;
44046;SDS011;29713;-33.888;151.150;2023-07-29T02:10:53;1.98;;;0.75;;
44046;SDS011;29713;-33.888;151.150;2023-07-29T02:13:21;1.42;;;0.80;;
44046;SDS011;29713;-33.888;151.150;2023-07-29T02:15:48;1.90;;;0.70;;
44046;SDS011;29713;-33.888;151.150;2023-07-29T02:18:15;0.77;;;0.70;;
44046;SDS011;29713;-33.888;151.150;2023-07-29T02:20:43;1.20;;;0.73;;
44046;SDS011;29713;-33.888;151.150;2023-07-29T02:23:15;1.23;;;0.90;;
44046;SDS011;29713;-33.888;151.150;2023-07-29T02:25:45;2.85;;;1.00;;
44046;SDS011;29713;-33.888;151.150;2023-07-29T02:28:12;2.13;;;0.90;;
44046;SDS011;29713;-33.888;151.150;2023-07-29T02:30:40;1.02;;;0.82;;
44046;SDS011;29713;-33.888;151.150;2023-07-29T02:33:10;3.20;;;0.90;;
44046;SDS011;29713;-33.888;151.150;2023-07-29T02:35:37;1.13;;;0.70;;
44046;SDS011;29713;-33.888;151.150;2023-07-29T02:38:05;1.00;;;0.80;;
44046;SDS011;29713;-33.888;151.150;2023-07-29T02:40:32;2.00;;;1.00;;
44046;SDS011;29713;-33.888;151.150;2023-07-29T02:42:59;2.38;;;0.90;;
44046;SDS011;29713;-33.888;151.150;2023-07-29T02:45:26;1.35;;;1.02;;
44046;SDS011;29713;-33.888;151.150;2023-07-29T02:47:54;1.83;;;1.08;;
44046;SDS011;29713;-33.888;151.150;2023-07-29T02:50:22;1.80;;;1.17;;
44046;SDS011;29713;-33.888;151.150;2023-07-29T02:52:49;1.50;;;0.93;;
44046;SDS011;29713;-33.888;151.150;2023-07-29T02:55:17;1.33;;;1.20;;
44046;SDS011;29713;-33.888;151.150;2023-07-29T02:57:45;2.03;;;1.33;;
44046;SDS011;29713;-33.888;151.150;2023-07-29T03:00:12;2.20;;;1.30;;
44046;SDS011;29713;-33.888;151.150;2023-07-29T03:02:40;1.67;;;1.27;;
44046;SDS011;29713;-33.888;151.150;2023-07-29T03:05:08;2.75;;;1.85;;
44046;SDS011;29713;-33.888;151.150;2023-07-29T03:07:35;3.08;;;2.15;;
44046;SDS011;29713;-33.888;151.150;2023-07-29T03:10:02;3.08;;;2.70;;
44046;SDS011;29713;-33.888;151.150;2023-07-29T03:12:31;4.78;;;3.30;;
44046;SDS011;29713;-33.888;151.150;2023-07-29T03:14:58;4.88;;;2.80;;
44046;SDS011;29713;-33.888;151.150;2023-07-29T03:17:26;4.13;;;2.60;;
44046;SDS011;29713;-33.888;151.150;2023-07-29T03:19:54;4.20;;;2.60;;
44046;SDS011;29713;-33.888;151.150;2023-07-29T03:22:21;2.95;;;2.50;;
44046;SDS011;29713;-33.888;151.150;2023-07-29T03:24:49;3.17;;;1.80;;
44046;SDS011;29713;-33.888;151.150;2023-07-29T03:27:16;2.78;;;1.60;;
44046;SDS011;29713;-33.888;151.150;2023-07-29T03:29:43;2.53;;;1.77;;
44046;SDS011;29713;-33.888;151.150;2023-07-29T03:32:11;3.17;;;1.73;;
44046;SDS011;29713;-33.888;151.150;2023-07-29T03:34:38;4.32;;;1.90;;
44046;SDS011;29713;-33.888;151.150;2023-07-29T03:37:06;1.73;;;1.35;;
44046;SDS011;29713;-33.888;151.150;2023-07-29T03:39:33;3.40;;;1.50;;
44046;SDS011;29713;-33.888;151.150;2023-07-29T03:42:00;3.97;;;1.20;;
44046;SDS011;29713;-33.888;151.150;2023-07-29T03:44:28;3.33;;;1.38;;
44046;SDS011;29713;-33.888;151.150;2023-07-29T03:46:56;2.50;;;1.23;;
44046;SDS011;29713;-33.888;151.150;2023-07-29T03:49:24;3.33;;;0.80;;
44046;SDS011;29713;-33.888;151.150;2023-07-29T03:51:51;3.15;;;1.13;;
44046;SDS011;29713;-33.888;151.150;2023-07-29T03:54:18;1.55;;;1.00;;
44046;SDS011;29713;-33.888;151.150;2023-07-29T03:56:49;2.75;;;1.30;;
44046;SDS011;29713;-33.888;151.150;2023-07-29T03:59:16;4.35;;;1.35;;
44046;SDS011;29713;-33.888;151.150;2023-07-29T04:01:44;2.08;;;0.98;;
44046;SDS011;29713;-33.888;151.150;2023-07-29T04:04:11;4.70;;;1.40;;
44046;SDS011;29713;-33.888;151.150;2023-07-29T04:06:38;2.45;;;1.38;;
44046;SDS011;29713;-33.888;151.150;2023-07-29T04:09:05;2.72;;;1.17;;
44046;SDS011;29713;-33.888;151.150;2023-07-29T04:11:33;3.78;;;1.30;;
44046;SDS011;29713;-33.888;151.150;2023-07-29T04:14:00;3.10;;;1.30;;
44046;SDS011;29713;-33.888;151.150;2023-07-29T04:16:28;5.15;;;0.90;;
44046;SDS011;29713;-33.888;151.150;2023-07-29T04:18:55;2.10;;;1.00;;
44046;SDS011;29713;-33.888;151.150;2023-07-29T04:21:22;3.20;;;1.10;;
44046;SDS011;29713;-33.888;151.150;2023-07-29T04:23:50;3.45;;;1.30;;
44046;SDS011;29713;-33.888;151.150;2023-07-29T04:26:17;3.35;;;1.55;;
44046;SDS011;29713;-33.888;151.150;2023-07-29T04:28:44;2.38;;;1.10;;
44046;SDS011;29713;-33.888;151.150;2023-07-29T04:31:12;3.30;;;1.70;;
44046;SDS011;29713;-33.888;151.150;2023-07-29T04:33:39;3.95;;;1.27;;
44046;SDS011;29713;-33.888;151.150;2023-07-29T04:36:06;2.67;;;1.33;;
44046;SDS011;29713;-33.888;151.150;2023-07-29T04:38:37;3.05;;;1.27;;
44046;SDS011;29713;-33.888;151.150;2023-07-29T04:41:04;4.05;;;1.58;;
44046;SDS011;29713;-33.888;151.150;2023-07-29T04:43:34;3.70;;;1.67;;
44046;SDS011;29713;-33.888;151.150;2023-07-29T04:46:01;2.60;;;1.40;;
44046;SDS011;29713;-33.888;151.150;2023-07-29T04:48:32;5.55;;;1.58;;
44046;SDS011;29713;-33.888;151.150;2023-07-29T04:50:59;2.10;;;1.20;;
44046;SDS011;29713;-33.888;151.150;2023-07-29T04:53:26;2.25;;;1.38;;
44046;SDS011;29713;-33.888;151.150;2023-07-29T04:55:54;4.72;;;1.50;;
44046;SDS011;29713;-33.888;151.150;2023-07-29T04:58:21;3.38;;;1.67;;
44046;SDS011;29713;-33.888;151.150;2023-07-29T05:00:48;4.45;;;1.50;;
44046;SDS011;29713;-33.888;151.150;2023-07-29T05:03:16;2.88;;;1.30;;
44046;SDS011;29713;-33.888;151.150;2023-07-29T05:05:43;3.80;;;1.58;;
44046;SDS011;29713;-33.888;151.150;2023-07-29T05:08:10;3.30;;;1.60;;
44046;SDS011;29713;-33.888;151.150;2023-07-29T05:10:38;3.78;;;1.38;;
44046;SDS011;29713;-33.888;151.150;2023-07-29T05:13:05;6.57;;;1.40;;
44046;SDS011;29713;-33.888;151.150;2023-07-29T05:15:33;4.13;;;1.30;;
44046;SDS011;29713;-33.888;151.150;2023-07-29T05:18:00;3.55;;;1.50;;
44046;SDS011;29713;-33.888;151.150;2023-07-29T05:20:27;3.65;;;1.70;;
44046;SDS011;29713;-33.888;151.150;2023-07-29T05:22:55;5.03;;;1.80;;
44046;SDS011;29713;-33.888;151.150;2023-07-29T05:25:22;3.63;;;1.58;;
44046;SDS011;29713;-33.888;151.150;2023-07-29T05:27:49;7.35;;;1.50;;
44046;SDS011;29713;-33.888;151.150;2023-07-29T05:30:17;4.25;;;1.50;;
44046;SDS011;29713;-33.888;151.150;2023-07-29T05:32:44;3.53;;;1.38;;
44046;SDS011;29713;-33.888;151.150;2023-07-29T05:35:11;3.75;;;1.40;;
44046;SDS011;29713;-33.888;151.150;2023-07-29T05:37:40;4.00;;;1.88;;
44046;SDS011;29713;-33.888;151.150;2023-07-29T05:40:07;5.03;;;1.60;;
44046;SDS011;29713;-33.888;151.150;2023-07-29T05:42:35;6.03;;;1.48;;
44046;SDS011;29713;-33.888;151.150;2023-07-29T05:45:02;4.32;;;1.80;;
44046;SDS011;29713;-33.888;151.150;2023-07-29T05:47:30;8.15;;;1.95;;
44046;SDS011;29713;-33.888;151.150;2023-07-29T05:49:57;3.05;;;1.48;;
44046;SDS011;29713;-33.888;151.150;2023-07-29T05:52:27;5.18;;;1.88;;
44046;SDS011;29713;-33.888;151.150;2023-07-29T05:54:54;4.10;;;1.52;;
44046;SDS011;29713;-33.888;151.150;2023-07-29T05:57:22;5.22;;;1.80;;
44046;SDS011;29713;-33.888;151.150;2023-07-29T05:59:49;5.15;;;1.63;;
44046;SDS011;29713;-33.888;151.150;2023-07-29T06:02:16;7.32;;;1.60;;
44046;SDS011;29713;-33.888;151.150;2023-07-29T06:04:44;3.58;;;1.45;;
44046;SDS011;29713;-33.888;151.150;2023-07-29T06:07:11;2.53;;;1.38;;
44046;SDS011;29713;-33.888;151.150;2023-07-29T06:09:39;2.70;;;1.55;;
44046;SDS011;29713;-33.888;151.150;2023-07-29T06:12:06;6.95;;;1.48;;
44046;SDS011;29713;-33.888;151.150;2023-07-29T06:14:34;6.00;;;1.83;;
44046;SDS011;29713;-33.888;151.150;2023-07-29T06:17:01;3.47;;;1.48;;
44046;SDS011;29713;-33.888;151.150;2023-07-29T06:19:29;4.78;;;1.50;;
44046;SDS011;29713;-33.888;151.150;2023-07-29T06:21:56;2.95;;;1.33;;
44046;SDS011;29713;-33.888;151.150;2023-07-29T06:24:23;4.10;;;1.50;;
44046;SDS011;29713;-33.888;151.150;2023-07-29T06:26:51;3.22;;;1.50;;
44046;SDS011;29713;-33.888;151.150;2023-07-29T06:29:18;4.72;;;1.35;;
44046;SDS011;29713;-33.888;151.150;2023-07-29T06:31:45;6.95;;;1.45;;
44046;SDS011;29713;-33.888;151.150;2023-07-29T06:34:13;3.83;;;1.90;;
44046;SDS011;29713;-33.888;151.150;2023-07-29T06:36:40;3.55;;;1.40;;
44046;SDS011;29713;-33.888;151.150;2023-07-29T06:39:08;3.45;;;1.23;;
44046;SDS011;29713;-33.888;151.150;2023-07-29T06:41:35;3.85;;;1.50;;
44046;SDS011;29713;-33.888;151.150;2023-07-29T06:44:03;3.10;;;1.40;;
44046;SDS011;29713;-33.888;151.150;2023-07-29T06:46:30;4.28;;;1.60;;
44046;SDS011;29713;-33.888;151.150;2023-07-29T06:48:58;4.00;;;1.25;;
44046;SDS011;29713;-33.888;151.150;2023-07-29T06:51:25;3.10;;;1.55;;
44046;SDS011;29713;-33.888;151.150;2023-07-29T06:53:55;2.45;;;1.40;;
44046;SDS011;29713;-33.888;151.150;2023-07-29T06:56:22;1.98;;;1.20;;
44046;SDS011;29713;-33.888;151.150;2023-07-29T06:58:49;3.88;;;1.23;;
44046;SDS011;29713;-33.888;151.150;2023-07-29T07:01:16;2.70;;;1.30;;
44046;SDS011;29713;-33.888;151.150;2023-07-29T07:03:44;2.40;;;1.20;;
44046;SDS011;29713;-33.888;151.150;2023-07-29T07:06:11;2.63;;;1.10;;
44046;SDS011;29713;-33.888;151.150;2023-07-29T07:08:39;2.53;;;1.20;;
44046;SDS011;29713;-33.888;151.150;2023-07-29T07:11:07;2.45;;;1.10;;
44046;SDS011;29713;-33.888;151.150;2023-07-29T07:13:34;5.50;;;1.50;;
44046;SDS011;29713;-33.888;151.150;2023-07-29T07:16:02;2.47;;;1.30;;
44046;SDS011;29713;-33.888;151.150;2023-07-29T07:18:29;3.83;;;1.98;;
44046;SDS011;29713;-33.888;151.150;2023-07-29T07:20:56;3.85;;;1.70;;
44046;SDS011;29713;-33.888;151.150;2023-07-29T07:23:24;3.80;;;1.70;;
44046;SDS011;29713;-33.888;151.150;2023-07-29T07:25:51;4.07;;;1.80;;
44046;SDS011;29713;-33.888;151.150;2023-07-29T07:28:18;4.50;;;1.67;;
44046;SDS011;29713;-33.888;151.150;2023-07-29T07:30:46;4.53;;;1.60;;
44046;SDS011;29713;-33.888;151.150;2023-07-29T07:33:13;2.65;;;1.45;;
44046;SDS011;29713;-33.888;151.150;2023-07-29T07:35:40;3.50;;;1.42;;
44046;SDS011;29713;-33.888;151.150;2023-07-29T07:38:08;4.50;;;1.52;;
44046;SDS011;29713;-33.888;151.150;2023-07-29T07:40:35;2.40;;;1.42;;
44046;SDS011;29713;-33.888;151.150;2023-07-29T07:43:03;4.47;;;2.20;;
44046;SDS011;29713;-33.888;151.150;2023-07-29T07:45:32;5.80;;;3.60;;
44046;SDS011;29713;-33.888;151.150;2023-07-29T07:47:59;3.80;;;3.17;;
44046;SDS011;29713;-33.888;151.150;2023-07-29T07:50:31;4.60;;;2.88;;
44046;SDS011;29713;-33.888;151.150;2023-07-29T07:52:58;3.35;;;2.40;;
44046;SDS011;29713;-33.888;151.150;2023-07-29T07:55:25;3.20;;;2.00;;
44046;SDS011;29713;-33.888;151.150;2023-07-29T07:57:53;4.25;;;2.25;;
44046;SDS011;29713;-33.888;151.150;2023-07-29T08:00:20;3.28;;;2.00;;
44046;SDS011;29713;-33.888;151.150;2023-07-29T08:02:48;3.60;;;1.63;;
44046;SDS011;29713;-33.888;151.150;2023-07-29T08:05:18;3.65;;;1.90;;
44046;SDS011;29713;-33.888;151.150;2023-07-29T08:07:46;5.82;;;2.08;;
44046;SDS011;29713;-33.888;151.150;2023-07-29T08:10:13;4.93;;;1.92;;
44046;SDS011;29713;-33.888;151.150;2023-07-29T08:12:44;2.72;;;1.70;;
44046;SDS011;29713;-33.888;151.150;2023-07-29T08:15:11;4.80;;;2.10;;
44046;SDS011;29713;-33.888;151.150;2023-07-29T08:17:38;2.92;;;1.98;;
44046;SDS011;29713;-33.888;151.150;2023-07-29T08:20:06;3.78;;;1.83;;
44046;SDS011;29713;-33.888;151.150;2023-07-29T08:22:33;5.72;;;2.30;;
44046;SDS011;29713;-33.888;151.150;2023-07-29T08:25:01;6.28;;;2.33;;
44046;SDS011;29713;-33.888;151.150;2023-07-29T08:27:28;3.22;;;2.10;;
44046;SDS011;29713;-33.888;151.150;2023-07-29T08:29:55;7.28;;;2.15;;
44046;SDS011;29713;-33.888;151.150;2023-07-29T08:32:23;4.40;;;2.42;;
44046;SDS011;29713;-33.888;151.150;2023-07-29T08:34:50;5.00;;;2.72;;
44046;SDS011;29713;-33.888;151.150;2023-07-29T08:37:17;4.93;;;2.67;;
44046;SDS011;29713;-33.888;151.150;2023-07-29T08:39:45;7.70;;;2.60;;
44046;SDS011;29713;-33.888;151.150;2023-07-29T08:42:12;5.47;;;3.05;;
44046;SDS011;29713;-33.888;151.150;2023-07-29T08:44:42;4.32;;;2.70;;
44046;SDS011;29713;-33.888;151.150;2023-07-29T08:47:11;4.32;;;2.35;;
44046;SDS011;29713;-33.888;151.150;2023-07-29T08:49:39;6.20;;;3.13;;
44046;SDS011;29713;-33.888;151.150;2023-07-29T08:52:08;6.47;;;2.92;;
44046;SDS011;29713;-33.888;151.150;2023-07-29T08:54:37;7.05;;;3.80;;
44046;SDS011;29713;-33.888;151.150;2023-07-29T08:57:04;6.97;;;3.28;;
44046;SDS011;29713;-33.888;151.150;2023-07-29T08:59:32;4.28;;;2.85;;
44046;SDS011;29713;-33.888;151.150;2023-07-29T09:02:00;4.47;;;2.83;;
44046;SDS011;29713;-33.888;151.150;2023-07-29T09:04:27;7.25;;;3.67;;
44046;SDS011;29713;-33.888;151.150;2023-07-29T09:06:54;6.60;;;3.35;;
44046;SDS011;29713;-33.888;151.150;2023-07-29T09:09:24;5.28;;;3.13;;
44046;SDS011;29713;-33.888;151.150;2023-07-29T09:11:52;8.75;;;4.13;;
44046;SDS011;29713;-33.888;151.150;2023-07-29T09:14:23;7.40;;;4.40;;
44046;SDS011;29713;-33.888;151.150;2023-07-29T09:16:51;7.70;;;5.00;;
44046;SDS011;29713;-33.888;151.150;2023-07-29T09:19:18;8.60;;;4.65;;
44046;SDS011;29713;-33.888;151.150;2023-07-29T09:21:46;7.10;;;4.18;;
44046;SDS011;29713;-33.888;151.150;2023-07-29T09:24:15;7.75;;;4.47;;
44046;SDS011;29713;-33.888;151.150;2023-07-29T09:26:52;7.70;;;4.22;;
44046;SDS011;29713;-33.888;151.150;2023-07-29T09:29:21;6.93;;;4.85;;
44046;SDS011;29713;-33.888;151.150;2023-07-29T09:31:49;8.50;;;5.40;;
44046;SDS011;29713;-33.888;151.150;2023-07-29T09:34:16;8.93;;;5.15;;
44046;SDS011;29713;-33.888;151.150;2023-07-29T09:36:44;8.57;;;4.90;;
44046;SDS011;29713;-33.888;151.150;2023-07-29T09:39:11;7.85;;;4.53;;
44046;SDS011;29713;-33.888;151.150;2023-07-29T09:41:39;7.90;;;4.63;;
44046;SDS011;29713;-33.888;151.150;2023-07-29T09:44:06;8.32;;;4.40;;
44046;SDS011;29713;-33.888;151.150;2023-07-29T09:46:35;7.00;;;3.80;;
44046;SDS011;29713;-33.888;151.150;2023-07-29T09:49:03;7.10;;;4.00;;
44046;SDS011;29713;-33.888;151.150;2023-07-29T09:51:32;6.10;;;3.90;;
44046;SDS011;29713;-33.888;151.150;2023-07-29T09:54:04;5.18;;;3.42;;
44046;SDS011;29713;-33.888;151.150;2023-07-29T09:56:32;6.85;;;4.10;;
44046;SDS011;29713;-33.888;151.150;2023-07-29T09:59:05;7.32;;;3.85;;
44046;SDS011;29713;-33.888;151.150;2023-07-29T10:01:32;7.43;;;4.88;;
44046;SDS011;29713;-33.888;151.150;2023-07-29T10:04:02;8.73;;;4.72;;
44046;SDS011;29713;-33.888;151.150;2023-07-29T10:06:30;7.60;;;4.90;;
44046;SDS011;29713;-33.888;151.150;2023-07-29T10:09:00;9.57;;;4.93;;
44046;SDS011;29713;-33.888;151.150;2023-07-29T10:11:28;7.50;;;5.15;;
44046;SDS011;29713;-33.888;151.150;2023-07-29T10:13:56;6.32;;;4.88;;
44046;SDS011;29713;-33.888;151.150;2023-07-29T10:16:26;8.77;;;4.60;;
44046;SDS011;29713;-33.888;151.150;2023-07-29T10:18:54;8.23;;;4.65;;
44046;SDS011;29713;-33.888;151.150;2023-07-29T10:21:23;8.38;;;4.90;;
44046;SDS011;29713;-33.888;151.150;2023-07-29T10:23:50;8.57;;;4.45;;
44046;SDS011;29713;-33.888;151.150;2023-07-29T10:26:24;7.75;;;5.00;;
44046;SDS011;29713;-33.888;151.150;2023-07-29T10:28:52;8.13;;;5.40;;
44046;SDS011;29713;-33.888;151.150;2023-07-29T10:31:26;14.77;;;10.40;;
44046;SDS011;29713;-33.888;151.150;2023-07-29T10:33:55;10.60;;;7.55;;
44046;SDS011;29713;-33.888;151.150;2023-07-29T10:36:23;10.20;;;6.85;;
44046;SDS011;29713;-33.888;151.150;2023-07-29T10:38:51;11.20;;;7.05;;
44046;SDS011;29713;-33.888;151.150;2023-07-29T10:41:19;8.82;;;6.13;;
44046;SDS011;29713;-33.888;151.150;2023-07-29T10:43:46;10.95;;;5.90;;
44046;SDS011;29713;-33.888;151.150;2023-07-29T10:46:17;10.80;;;5.50;;
44046;SDS011;29713;-33.888;151.150;2023-07-29T10:51:23;10.52;;;6.20;;
44046;SDS011;29713;-33.888;151.150;2023-07-29T10:54:04;10.35;;;6.45;;
44046;SDS011;29713;-33.888;151.150;2023-07-29T10:56:41;10.07;;;7.10;;
44046;SDS011;29713;-33.888;151.150;2023-07-29T11:01:54;13.18;;;8.38;;
44046;SDS011;29713;-33.888;151.150;2023-07-29T11:04:28;12.13;;;8.03;;
44046;SDS011;29713;-33.888;151.150;2023-07-29T11:15:04;12.13;;;8.65;;
44046;SDS011;29713;-33.888;151.150;2023-07-29T11:17:40;11.63;;;8.50;;
44046;SDS011;29713;-33.888;151.150;2023-07-29T11:20:09;12.63;;;8.20;;
44046;SDS011;29713;-33.888;151.150;2023-07-29T11:22:38;14.17;;;9.07;;
44046;SDS011;29713;-33.888;151.150;2023-07-29T11:25:06;11.00;;;8.53;;
44046;SDS011;29713;-33.888;151.150;2023-07-29T11:27:36;11.97;;;9.17;;
44046;SDS011;29713;-33.888;151.150;2023-07-29T11:30:04;14.30;;;8.63;;
44046;SDS011;29713;-33.888;151.150;2023-07-29T11:32:37;12.47;;;8.17;;
44046;SDS011;29713;-33.888;151.150;2023-07-29T11:35:06;13.77;;;8.97;;
44046;SDS011;29713;-33.888;151.150;2023-07-29T11:37:44;13.50;;;8.20;;
44046;SDS011;29713;-33.888;151.150;2023-07-29T11:40:16;12.47;;;8.00;;
44046;SDS011;29713;-33.888;151.150;2023-07-29T11:42:50;11.40;;;7.60;;
44046;SDS011;29713;-33.888;151.150;2023-07-29T11:45:19;13.67;;;7.73;;
44046;SDS011;29713;-33.888;151.150;2023-07-29T11:47:48;14.07;;;8.07;;
44046;SDS011;29713;-33.888;151.150;2023-07-29T11:50:15;13.27;;;7.53;;
44046;SDS011;29713;-33.888;151.150;2023-07-29T11:52:43;19.83;;;10.33;;
44046;SDS011;29713;-33.888;151.150;2023-07-29T11:55:13;23.53;;;11.70;;
44046;SDS011;29713;-33.888;151.150;2023-07-29T11:57:41;21.70;;;11.33;;
44046;SDS011;29713;-33.888;151.150;2023-07-29T12:00:12;19.13;;;10.90;;
44046;SDS011;29713;-33.888;151.150;2023-07-29T12:02:41;15.43;;;8.87;;
44046;SDS011;29713;-33.888;151.150;2023-07-29T12:05:10;15.60;;;8.57;;
44046;SDS011;29713;-33.888;151.150;2023-07-29T12:07:41;11.37;;;7.83;;
44046;SDS011;29713;-33.888;151.150;2023-07-29T12:10:10;13.53;;;9.10;;
44046;SDS011;29713;-33.888;151.150;2023-07-29T12:12:47;12.60;;;8.30;;
44046;SDS011;29713;-33.888;151.150;2023-07-29T12:15:25;14.93;;;8.10;;
44046;SDS011;29713;-33.888;151.150;2023-07-29T12:17:55;13.10;;;7.50;;
44046;SDS011;29713;-33.888;151.150;2023-07-29T12:20:23;12.83;;;7.30;;
44046;SDS011;29713;-33.888;151.150;2023-07-29T12:22:57;13.20;;;8.00;;
44046;SDS011;29713;-33.888;151.150;2023-07-29T12:25:30;12.47;;;7.70;;
44046;SDS011;29713;-33.888;151.150;2023-07-29T12:28:07;13.40;;;8.30;;
44046;SDS011;29713;-33.888;151.150;2023-07-29T12:30:40;14.33;;;8.17;;
44046;SDS011;29713;-33.888;151.150;2023-07-29T12:33:08;13.53;;;8.70;;
44046;SDS011;29713;-33.888;151.150;2023-07-29T12:35:36;16.50;;;9.07;;
44046;SDS011;29713;-33.888;151.150;2023-07-29T12:38:04;18.03;;;9.57;;
44046;SDS011;29713;-33.888;151.150;2023-07-29T12:40:31;17.97;;;10.63;;
44046;SDS011;29713;-33.888;151.150;2023-07-29T12:42:59;17.73;;;11.93;;
44046;SDS011;29713;-33.888;151.150;2023-07-29T12:45:26;16.87;;;11.07;;
44046;SDS011;29713;-33.888;151.150;2023-07-29T12:47:54;14.70;;;10.20;;
44046;SDS011;29713;-33.888;151.150;2023-07-29T12:50:22;14.93;;;9.50;;
44046;SDS011;29713;-33.888;151.150;2023-07-29T12:52:49;14.60;;;8.90;;
44046;SDS011;29713;-33.888;151.150;2023-07-29T12:55:17;13.70;;;8.63;;
44046;SDS011;29713;-33.888;151.150;2023-07-29T12:57:44;11.37;;;7.70;;
44046;SDS011;29713;-33.888;151.150;2023-07-29T13:00:11;12.70;;;8.83;;
44046;SDS011;29713;-33.888;151.150;2023-07-29T13:02:39;12.67;;;7.57;;
44046;SDS011;29713;-33.888;151.150;2023-07-29T13:05:09;12.37;;;7.87;;
44046;SDS011;29713;-33.888;151.150;2023-07-29T13:07:40;12.63;;;8.30;;
44046;SDS011;29713;-33.888;151.150;2023-07-29T13:10:08;12.10;;;7.87;;
44046;SDS011;29713;-33.888;151.150;2023-07-29T13:12:36;11.27;;;8.10;;
44046;SDS011;29713;-33.888;151.150;2023-07-29T13:15:04;9.70;;;7.77;;
44046;SDS011;29713;-33.888;151.150;2023-07-29T13:17:32;10.43;;;7.37;;
44046;SDS011;29713;-33.888;151.150;2023-07-29T13:20:00;12.67;;;7.50;;
44046;SDS011;29713;-33.888;151.150;2023-07-29T13:22:27;14.87;;;8.67;;
44046;SDS011;29713;-33.888;151.150;2023-07-29T13:24:54;13.27;;;8.00;;
44046;SDS011;29713;-33.888;151.150;2023-07-29T13:27:22;12.27;;;8.20;;
44046;SDS011;29713;-33.888;151.150;2023-07-29T13:29:50;13.10;;;8.27;;
44046;SDS011;29713;-33.888;151.150;2023-07-29T13:32:18;11.07;;;7.50;;
44046;SDS011;29713;-33.888;151.150;2023-07-29T13:34:45;10.30;;;7.70;;
44046;SDS011;29713;-33.888;151.150;2023-07-29T13:37:12;14.07;;;8.10;;
44046;SDS011;29713;-33.888;151.150;2023-07-29T13:39:40;12.33;;;8.30;;
44046;SDS011;29713;-33.888;151.150;2023-07-29T13:42:07;11.10;;;7.43;;
44046;SDS011;29713;-33.888;151.150;2023-07-29T13:44:34;12.67;;;8.33;;
44046;SDS011;29713;-33.888;151.150;2023-07-29T13:47:02;13.00;;;7.63;;
44046;SDS011;29713;-33.888;151.150;2023-07-29T13:49:29;10.27;;;7.20;;
44046;SDS011;29713;-33.888;151.150;2023-07-29T13:51:56;11.37;;;8.20;;
44046;SDS011;29713;-33.888;151.150;2023-07-29T13:54:24;10.27;;;7.03;;
44046;SDS011;29713;-33.888;151.150;2023-07-29T13:56:54;13.97;;;8.20;;
44046;SDS011;29713;-33.888;151.150;2023-07-29T13:59:21;10.30;;;6.43;;
44046;SDS011;29713;-33.888;151.150;2023-07-29T14:01:48;13.80;;;8.17;;
44046;SDS011;29713;-33.888;151.150;2023-07-29T14:04:16;13.67;;;7.80;;
44046;SDS011;29713;-33.888;151.150;2023-07-29T14:06:43;11.33;;;7.70;;
44046;SDS011;29713;-33.888;151.150;2023-07-29T14:09:11;10.90;;;7.70;;
44046;SDS011;29713;-33.888;151.150;2023-07-29T14:11:38;12.83;;;7.00;;
44046;SDS011;29713;-33.888;151.150;2023-07-29T14:14:06;8.53;;;7.27;;
44046;SDS011;29713;-33.888;151.150;2023-07-29T14:16:34;11.20;;;7.17;;
44046;SDS011;29713;-33.888;151.150;2023-07-29T14:19:01;13.30;;;7.60;;
44046;SDS011;29713;-33.888;151.150;2023-07-29T14:21:28;11.77;;;7.50;;
44046;SDS011;29713;-33.888;151.150;2023-07-29T14:23:56;12.63;;;7.97;;
44046;SDS011;29713;-33.888;151.150;2023-07-29T14:26:23;11.67;;;7.33;;
44046;SDS011;29713;-33.888;151.150;2023-07-29T14:28:50;11.23;;;7.53;;
44046;SDS011;29713;-33.888;151.150;2023-07-29T14:31:18;10.27;;;8.20;;